Time;durP1;ratioP1;P1;durP2;ratioP2;P2;SDS_P1;SDS_P2;PMS_P1;PMS_P2;Temp;Humidity;BMP_temperature;BMP_pressure;BME280_temperature;BME280_humidity;BME280_pressure;Samples;Min_cycle;Max_cycle;Signal;HPM_P1;HPM_P2
2021/08/05 00:00:56;;;;;;;11.33;10.10;;;16.00;99.90;;;;;;5050468;28;20217;-75
2021/08/05 00:03:22;;;;;;;11.10;9.50;;;16.00;99.90;;;;;;5052026;28;20173;-75
2021/08/05 00:05:48;;;;;;;11.00;9.80;;;16.00;99.90;;;;;;5051654;28;20182;-74
2021/08/05 00:08:13;;;;;;;10.60;9.50;;;16.00;99.90;;;;;;5050613;28;20176;-74
2021/08/05 00:10:39;;;;;;;10.73;9.73;;;16.00;99.90;;;;;;5051495;28;20190;-75
2021/08/05 00:13:04;;;;;;;11.57;10.47;;;16.00;99.90;;;;;;5050823;28;20454;-74
2021/08/05 00:15:30;;;;;;;11.10;10.00;;;16.00;99.90;;;;;;5051793;28;20184;-75
2021/08/05 00:17:55;;;;;;;11.30;10.07;;;16.00;99.90;;;;;;5050642;28;20256;-75
2021/08/05 00:20:21;;;;;;;11.13;9.83;;;16.00;99.90;;;;;;5051414;28;20206;-74
2021/08/05 00:22:47;;;;;;;11.40;9.53;;;16.00;99.90;;;;;;5053198;28;20180;-75
2021/08/05 00:25:12;;;;;;;10.43;9.43;;;16.10;99.90;;;;;;5037911;28;20170;-75
2021/08/05 00:27:38;;;;;;;11.50;10.40;;;16.00;99.90;;;;;;5037805;28;20178;-74
2021/08/05 00:30:04;;;;;;;12.87;9.83;;;16.00;99.90;;;;;;5054028;28;20666;-75
2021/08/05 00:32:30;;;;;;;11.20;10.10;;;16.10;99.90;;;;;;5054326;28;20605;-75
2021/08/05 00:34:55;;;;;;;10.87;9.77;;;16.10;99.90;;;;;;5054285;28;20217;-75
2021/08/05 00:37:21;;;;;;;12.37;11.07;;;16.00;99.90;;;;;;5055528;28;20174;-75
2021/08/05 00:39:46;;;;;;;11.80;10.70;;;16.10;99.90;;;;;;5054158;28;20224;-74
2021/08/05 00:42:12;;;;;;;11.13;10.03;;;16.00;99.90;;;;;;5054407;28;20177;-74
2021/08/05 00:44:38;;;;;;;11.60;10.50;;;16.00;99.90;;;;;;5054042;28;20166;-75
2021/08/05 00:47:04;;;;;;;11.57;10.43;;;16.00;99.90;;;;;;5054177;28;20178;-74
2021/08/05 00:49:30;;;;;;;12.37;11.07;;;15.90;99.90;;;;;;5053649;28;20220;-75
2021/08/05 00:51:56;;;;;;;11.57;10.43;;;15.90;99.90;;;;;;5055363;28;20226;-75
2021/08/05 00:54:21;;;;;;;11.23;10.03;;;15.90;99.90;;;;;;5054050;28;20192;-75
2021/08/05 00:56:47;;;;;;;10.90;9.90;;;15.90;99.90;;;;;;5054246;28;20179;-75
2021/08/05 00:59:12;;;;;;;10.90;9.80;;;15.90;99.90;;;;;;5053578;28;20221;-75
2021/08/05 01:01:48;;;;;;;10.47;9.47;;;16.00;99.90;;;;;;5054835;28;20220;-75
2021/08/05 01:04:14;;;;;;;10.57;9.57;;;16.00;99.90;;;;;;5053704;28;20170;-75
2021/08/05 01:07:06;;;;;;;10.93;9.90;;;16.00;99.90;;;;;;5053814;28;20607;-75
2021/08/05 01:09:32;;;;;;;11.27;10.07;;;16.00;99.90;;;;;;5054106;28;20202;-75
2021/08/05 01:12:17;;;;;;;10.40;9.37;;;16.00;99.90;;;;;;5055132;28;20253;-75
2021/08/05 01:14:45;;;;;;;10.20;9.20;;;16.00;99.90;;;;;;5054097;28;20174;-75
2021/08/05 01:17:11;;;;;;;10.53;9.50;;;16.00;99.90;;;;;;5054969;28;20607;-74
2021/08/05 01:19:42;;;;;;;10.37;9.33;;;16.00;99.90;;;;;;5053344;28;20278;-75
2021/08/05 01:22:35;;;;;;;10.10;8.97;;;16.00;99.90;;;;;;5053515;28;20551;-75
2021/08/05 01:25:24;;;;;;;10.00;8.90;;;16.00;99.90;;;;;;5052739;28;20194;-75
2021/08/05 01:27:49;;;;;;;10.27;9.27;;;16.00;99.90;;;;;;5054587;28;20642;-74
2021/08/05 01:30:15;;;;;;;9.47;8.63;;;16.00;99.90;;;;;;5053206;28;20190;-75
2021/08/05 01:32:41;;;;;;;10.57;9.57;;;16.00;99.90;;;;;;5052896;28;20171;-75
2021/08/05 01:35:09;;;;;;;10.27;9.27;;;15.90;99.90;;;;;;5053406;28;20178;-74
2021/08/05 01:37:34;;;;;;;10.13;9.13;;;16.00;99.90;;;;;;5036336;28;20185;-75
2021/08/05 01:40:00;;;;;;;9.60;8.67;;;16.00;99.90;;;;;;5052933;28;20652;-75
2021/08/05 01:42:25;;;;;;;10.13;9.23;;;16.00;99.90;;;;;;5052984;28;20183;-74
2021/08/05 01:44:52;;;;;;;10.97;9.87;;;16.00;99.90;;;;;;5052909;28;20186;-75
2021/08/05 01:47:18;;;;;;;10.97;9.83;;;15.90;99.90;;;;;;5053078;28;20179;-75
2021/08/05 01:49:44;;;;;;;10.60;9.03;;;15.90;99.90;;;;;;5036475;28;20624;-75
2021/08/05 01:52:09;;;;;;;9.80;8.90;;;15.90;99.90;;;;;;5052987;28;20198;-75
2021/08/05 01:54:35;;;;;;;9.77;8.77;;;16.00;99.90;;;;;;5036183;28;20178;-75
2021/08/05 01:57:02;;;;;;;10.07;9.07;;;16.00;99.90;;;;;;5054061;28;20178;-75
2021/08/05 01:59:27;;;;;;;13.70;9.20;;;15.90;99.90;;;;;;5052387;28;20199;-75
2021/08/05 02:01:53;;;;;;;10.70;9.70;;;15.90;99.90;;;;;;5052803;28;20217;-75
2021/08/05 02:05:09;;;;;;;12.50;11.40;;;16.00;99.90;;;;;;5052668;28;20180;-75
2021/08/05 02:07:47;;;;;;;13.13;11.00;;;16.00;99.90;;;;;;5011788;28;20191;-75
2021/08/05 02:10:37;;;;;;;12.07;10.83;;;15.90;99.90;;;;;;4988501;22;20228;-75
2021/08/05 02:13:06;;;;;;;11.47;10.40;;;15.90;99.90;;;;;;4993199;28;20176;-75
2021/08/05 02:15:34;;;;;;;13.40;10.93;;;15.80;99.90;;;;;;4977285;28;20169;-75
2021/08/05 02:17:59;;;;;;;13.07;11.73;;;15.80;99.90;;;;;;4977410;28;20624;-75
2021/08/05 02:20:27;;;;;;;11.33;10.33;;;15.80;99.90;;;;;;4976677;28;20201;-75
2021/08/05 02:22:53;;;;;;;12.30;11.20;;;15.70;99.90;;;;;;4977418;28;20179;-76
2021/08/05 02:25:18;;;;;;;12.57;11.07;;;15.70;99.90;;;;;;4976970;28;20191;-75
2021/08/05 02:27:44;;;;;;;12.77;11.57;;;15.70;99.90;;;;;;4992913;28;20180;-76
2021/08/05 02:30:10;;;;;;;12.07;10.97;;;15.70;99.90;;;;;;4976678;28;20211;-75
2021/08/05 02:32:36;;;;;;;11.87;10.57;;;15.70;99.90;;;;;;4960711;28;20218;-76
2021/08/05 02:35:03;;;;;;;12.60;11.40;;;15.70;99.90;;;;;;4976793;28;20184;-76
2021/08/05 02:37:28;;;;;;;13.60;12.20;;;15.70;99.90;;;;;;4976746;28;20199;-76
2021/08/05 02:39:54;;;;;;;14.93;11.57;;;15.70;99.90;;;;;;4992477;28;20201;-76
2021/08/05 02:42:20;;;;;;;13.10;11.07;;;15.70;99.90;;;;;;4976770;28;20255;-76
2021/08/05 02:44:45;;;;;;;12.63;11.47;;;15.70;99.90;;;;;;4975687;28;20557;-75
2021/08/05 02:47:11;;;;;;;13.30;11.90;;;15.60;99.90;;;;;;4992602;28;20550;-76
2021/08/05 02:49:36;;;;;;;12.70;11.50;;;15.70;99.90;;;;;;4992254;28;20656;-76
2021/08/05 02:52:02;;;;;;;13.07;11.87;;;15.70;99.90;;;;;;4960226;28;20650;-75
2021/08/05 02:54:29;;;;;;;12.10;10.80;;;15.70;99.90;;;;;;4977196;28;20570;-76
2021/08/05 02:56:55;;;;;;;13.20;11.80;;;15.70;99.90;;;;;;4991719;28;20211;-76
2021/08/05 02:59:20;;;;;;;13.57;11.67;;;15.70;99.90;;;;;;4975987;28;20206;-75
2021/08/05 03:01:46;;;;;;;13.17;11.77;;;15.70;99.90;;;;;;4976302;28;20242;-75
2021/08/05 03:04:11;;;;;;;13.50;11.57;;;15.60;99.90;;;;;;4992598;28;20179;-76
2021/08/05 03:06:37;;;;;;;12.33;11.13;;;15.60;99.90;;;;;;4992299;28;20184;-76
2021/08/05 03:09:03;;;;;;;13.13;11.20;;;15.60;99.90;;;;;;4975814;28;20271;-75
2021/08/05 03:11:28;;;;;;;12.93;11.73;;;15.60;99.90;;;;;;4975830;28;20285;-75
2021/08/05 03:13:54;;;;;;;12.27;10.97;;;15.60;99.90;;;;;;4992109;28;20528;-76
2021/08/05 03:16:19;;;;;;;12.57;11.37;;;15.60;99.90;;;;;;4992352;28;20180;-76
2021/08/05 03:18:45;;;;;;;11.80;10.57;;;15.60;99.90;;;;;;4992066;28;20176;-75
2021/08/05 03:21:10;;;;;;;12.03;10.93;;;15.60;99.90;;;;;;4988063;28;20201;-76
2021/08/05 03:23:36;;;;;;;12.27;10.97;;;15.70;99.90;;;;;;4972781;28;20188;-75
2021/08/05 03:26:01;;;;;;;12.37;11.27;;;15.60;99.90;;;;;;4972585;28;20177;-76
2021/08/05 03:28:27;;;;;;;12.90;10.43;;;15.60;99.90;;;;;;4988638;28;20556;-76
2021/08/05 03:30:53;;;;;;;12.00;10.77;;;15.60;99.90;;;;;;4972330;28;20276;-76
2021/08/05 03:33:18;;;;;;;13.63;10.53;;;15.60;99.90;;;;;;4988419;28;20640;-76
2021/08/05 03:35:44;;;;;;;13.60;10.57;;;15.60;99.90;;;;;;4972519;28;20188;-76
2021/08/05 03:38:09;;;;;;;13.33;10.97;;;15.70;99.90;;;;;;4972365;28;20180;-75
2021/08/05 03:40:35;;;;;;;11.70;10.57;;;15.70;99.90;;;;;;4971998;28;20215;-75
2021/08/05 03:43:00;;;;;;;11.50;10.30;;;15.60;99.90;;;;;;4988474;28;20644;-76
2021/08/05 03:45:26;;;;;;;11.33;10.03;;;15.60;99.90;;;;;;4972210;28;20169;-76
2021/08/05 03:47:51;;;;;;;12.43;10.07;;;15.80;99.90;;;;;;4972420;28;20176;-76
2021/08/05 03:50:17;;;;;;;10.97;9.80;;;15.70;99.90;;;;;;4972001;28;20284;-75
2021/08/05 03:52:43;;;;;;;11.17;10.13;;;15.70;99.90;;;;;;4988335;28;20183;-76
2021/08/05 03:55:13;;;;;;;10.97;9.87;;;15.60;99.90;;;;;;4973442;28;20189;-75
2021/08/05 03:57:42;;;;;;;10.40;9.50;;;15.60;99.90;;;;;;4992827;28;20176;-76
2021/08/05 04:00:09;;;;;;;9.60;8.70;;;15.70;99.90;;;;;;4992376;28;20196;-76
2021/08/05 04:02:35;;;;;;;11.53;9.40;;;15.70;99.90;;;;;;4973327;28;20184;-75
2021/08/05 04:05:00;;;;;;;10.17;9.27;;;15.60;99.90;;;;;;4974917;28;20183;-76
2021/08/05 04:07:26;;;;;;;10.37;8.90;;;15.60;99.90;;;;;;4988290;28;20173;-75
2021/08/05 04:09:51;;;;;;;11.83;9.90;;;15.60;99.90;;;;;;4988637;28;20212;-75
2021/08/05 04:12:17;;;;;;;10.93;9.90;;;15.60;99.90;;;;;;4988075;28;20184;-75
2021/08/05 04:14:43;;;;;;;10.27;9.27;;;15.60;99.90;;;;;;4960781;28;20706;-76
2021/08/05 04:17:08;;;;;;;11.30;9.93;;;15.70;99.90;;;;;;4971818;28;20177;-76
2021/08/05 04:19:34;;;;;;;10.50;9.47;;;15.70;99.90;;;;;;4971558;28;20767;-76
2021/08/05 04:21:59;;;;;;;11.03;9.93;;;15.60;99.90;;;;;;4971680;28;20303;-76
2021/08/05 04:24:25;;;;;;;11.17;10.17;;;15.60;99.90;;;;;;4971758;28;20180;-77
2021/08/05 04:26:50;;;;;;;12.83;10.40;;;15.60;99.90;;;;;;4973810;28;20173;-81
2021/08/05 04:29:16;;;;;;;12.03;10.93;;;15.60;99.90;;;;;;4973306;28;20576;-78
2021/08/05 04:31:41;;;;;;;11.43;10.33;;;15.60;99.90;;;;;;4973180;28;20304;-78
2021/08/05 04:34:07;;;;;;;11.23;10.13;;;15.60;99.90;;;;;;4988616;28;20189;-76
2021/08/05 04:36:32;;;;;;;11.70;10.60;;;15.60;99.90;;;;;;4972013;28;20180;-77
2021/08/05 04:38:58;;;;;;;11.30;10.30;;;15.60;99.90;;;;;;4988062;28;20181;-77
2021/08/05 04:41:23;;;;;;;12.27;11.07;;;15.60;99.90;;;;;;4971658;28;20622;-76
2021/08/05 04:43:51;;;;;;;12.43;11.13;;;15.60;99.90;;;;;;4987859;28;20640;-77
2021/08/05 04:46:17;;;;;;;11.87;10.77;;;15.60;99.90;;;;;;4971857;28;20248;-75
2021/08/05 04:48:42;;;;;;;12.70;11.50;;;15.60;99.90;;;;;;4971778;28;20223;-77
2021/08/05 04:51:08;;;;;;;12.50;10.77;;;15.60;99.90;;;;;;4987601;28;20209;-75
2021/08/05 04:53:33;;;;;;;14.57;12.17;;;15.60;99.90;;;;;;4972833;28;20196;-75
2021/08/05 04:55:59;;;;;;;13.67;11.13;;;15.60;99.90;;;;;;4972801;28;20184;-75
2021/08/05 04:58:24;;;;;;;11.10;10.07;;;15.60;99.90;;;;;;4971646;28;20170;-75
2021/08/05 05:00:50;;;;;;;11.47;10.30;;;15.60;99.90;;;;;;4987592;28;20679;-75
2021/08/05 05:03:16;;;;;;;12.53;11.23;;;15.60;99.90;;;;;;4987982;28;20169;-75
2021/08/05 05:05:41;;;;;;;12.53;11.30;;;15.60;99.90;;;;;;4971575;28;20189;-75
2021/08/05 05:08:25;;;;;;;12.57;11.27;;;15.60;99.90;;;;;;4972668;28;20656;-75
2021/08/05 05:10:53;;;;;;;13.07;11.87;;;15.70;99.90;;;;;;4989898;28;20222;-75
2021/08/05 05:13:18;;;;;;;13.77;12.37;;;15.70;99.90;;;;;;4990893;28;20542;-75
2021/08/05 05:15:44;;;;;;;15.00;11.90;;;15.70;99.90;;;;;;4974877;28;20257;-75
2021/08/05 05:18:10;;;;;;;13.03;11.73;;;15.70;99.90;;;;;;4991319;28;20870;-75
2021/08/05 05:20:35;;;;;;;12.97;11.67;;;15.70;99.90;;;;;;4996207;28;20204;-75
2021/08/05 05:23:01;;;;;;;14.63;13.00;;;15.70;99.90;;;;;;4977947;28;20277;-76
2021/08/05 05:25:27;;;;;;;14.27;12.87;;;15.80;99.90;;;;;;4990895;28;20228;-76
2021/08/05 05:27:52;;;;;;;13.97;12.60;;;15.80;99.90;;;;;;4980341;28;20183;-76
2021/08/05 05:30:18;;;;;;;14.43;13.03;;;15.80;99.90;;;;;;4994039;28;20192;-76
2021/08/05 05:32:44;;;;;;;13.70;12.03;;;15.90;99.90;;;;;;5010479;28;20268;-76
2021/08/05 05:35:09;;;;;;;14.43;12.93;;;15.90;99.90;;;;;;4977803;28;20246;-76
2021/08/05 05:37:35;;;;;;;14.23;12.93;;;15.90;99.90;;;;;;4996822;28;20531;-76
2021/08/05 05:40:00;;;;;;;12.97;11.43;;;15.90;99.90;;;;;;5011498;28;20199;-76
2021/08/05 05:42:26;;;;;;;13.97;12.67;;;16.00;99.90;;;;;;4978219;28;20184;-76
2021/08/05 05:44:52;;;;;;;14.50;12.10;;;16.00;99.90;;;;;;4977852;28;20267;-76
2021/08/05 05:47:17;;;;;;;13.70;12.07;;;16.00;99.90;;;;;;4977853;28;20176;-76
2021/08/05 05:49:43;;;;;;;14.07;12.47;;;16.10;99.90;;;;;;4977543;28;20648;-76
2021/08/05 05:52:08;;;;;;;13.40;11.77;;;16.10;99.90;;;;;;4995216;28;20183;-76
2021/08/05 05:54:34;;;;;;;13.07;11.77;;;16.10;99.90;;;;;;4977588;28;20581;-76
2021/08/05 05:57:00;;;;;;;14.90;13.37;;;16.10;99.90;;;;;;4977575;28;20600;-76
2021/08/05 05:59:25;;;;;;;12.40;11.30;;;16.10;99.90;;;;;;4994825;28;20190;-76
2021/08/05 06:01:51;;;;;;;13.90;12.50;;;16.20;99.90;;;;;;4993686;28;20254;-76
2021/08/05 06:04:16;;;;;;;13.90;12.50;;;16.20;99.90;;;;;;4977148;28;20223;-76
2021/08/05 06:06:42;;;;;;;17.17;13.37;;;16.10;99.90;;;;;;4994689;28;20228;-76
2021/08/05 06:09:07;;;;;;;13.97;12.67;;;16.20;99.90;;;;;;4977110;28;20184;-78
2021/08/05 06:11:33;;;;;;;14.73;13.23;;;16.10;99.90;;;;;;4993428;28;20254;-77
2021/08/05 06:13:58;;;;;;;16.93;13.07;;;16.10;99.90;;;;;;4980845;28;20191;-80
2021/08/05 06:16:24;;;;;;;14.10;12.70;;;16.10;99.90;;;;;;4981102;28;20318;-81
2021/08/05 06:18:50;;;;;;;14.43;12.93;;;16.10;99.90;;;;;;4999292;28;20180;-80
2021/08/05 06:21:16;;;;;;;14.27;12.87;;;16.30;99.90;;;;;;4967623;28;20214;-81
2021/08/05 06:23:41;;;;;;;14.43;12.93;;;16.20;99.90;;;;;;4983318;28;20180;-81
2021/08/05 06:26:07;;;;;;;14.57;13.17;;;16.20;99.90;;;;;;4981997;28;20219;-82
2021/08/05 06:28:35;;;;;;;15.17;12.53;;;16.10;99.90;;;;;;4997339;28;20188;-82
2021/08/05 06:31:01;;;;;;;13.77;12.23;;;16.20;99.90;;;;;;4981626;28;20200;-81
2021/08/05 06:33:26;;;;;;;13.53;12.10;;;16.20;99.90;;;;;;4982758;28;20275;-78
2021/08/05 06:35:52;;;;;;;13.80;12.40;;;16.20;99.90;;;;;;4981537;28;20204;-79
2021/08/05 06:38:17;;;;;;;13.50;12.20;;;16.20;99.90;;;;;;4981733;28;20192;-79
2021/08/05 06:40:43;;;;;;;16.17;12.87;;;16.20;99.90;;;;;;4997023;28;20231;-81
2021/08/05 06:43:09;;;;;;;15.17;13.13;;;16.30;99.90;;;;;;4997832;28;20562;-81
2021/08/05 06:45:34;;;;;;;15.67;13.17;;;16.30;99.90;;;;;;4980303;28;20180;-80
2021/08/05 06:48:00;;;;;;;15.70;13.03;;;16.40;99.90;;;;;;4977760;28;20173;-80
2021/08/05 06:50:25;;;;;;;16.40;14.27;;;16.60;99.90;;;;;;4996144;28;20203;-80
2021/08/05 06:52:51;;;;;;;14.77;13.20;;;16.50;99.90;;;;;;4996285;28;20239;-80
2021/08/05 06:55:17;;;;;;;14.17;12.80;;;16.60;99.90;;;;;;4979426;28;20485;-80
2021/08/05 06:57:42;;;;;;;13.87;12.50;;;16.70;99.90;;;;;;4982958;28;20180;-81
2021/08/05 07:00:08;;;;;;;14.87;13.37;;;16.70;99.90;;;;;;4977883;28;20211;-80
2021/08/05 07:02:34;;;;;;;15.23;13.20;;;16.80;99.90;;;;;;4999462;28;21313;-79
2021/08/05 07:05:02;;;;;;;15.10;13.60;;;16.80;99.90;;;;;;5000152;28;20180;-79
2021/08/05 07:07:29;;;;;;;15.83;14.30;;;16.90;99.90;;;;;;4983029;28;20187;-79
2021/08/05 07:09:58;;;;;;;14.57;12.57;;;17.00;99.90;;;;;;4998398;28;20215;-80
2021/08/05 07:12:23;;;;;;;16.00;14.27;;;17.20;99.90;;;;;;4981358;28;20227;-80
2021/08/05 07:14:49;;;;;;;15.10;13.57;;;17.30;99.90;;;;;;4980883;28;20575;-80
2021/08/05 07:17:15;;;;;;;14.60;13.20;;;17.50;99.90;;;;;;4979793;28;20183;-79
2021/08/05 07:19:42;;;;;;;14.27;12.87;;;17.70;99.90;;;;;;4979406;28;20188;-80
2021/08/05 07:22:07;;;;;;;15.83;14.33;;;17.90;99.90;;;;;;4978390;28;20208;-77
2021/08/05 07:24:33;;;;;;;15.97;14.40;;;18.30;99.90;;;;;;4992059;28;20203;-75
2021/08/05 07:26:58;;;;;;;14.90;13.40;;;18.60;99.90;;;;;;5007532;28;20668;-75
2021/08/05 07:29:24;;;;;;;15.00;13.53;;;18.60;99.90;;;;;;4992784;28;20199;-73
2021/08/05 07:31:49;;;;;;;16.40;14.70;;;18.70;99.90;;;;;;4975232;28;20200;-76
2021/08/05 07:34:15;;;;;;;16.70;15.00;;;18.70;99.90;;;;;;4993023;28;20207;-75
2021/08/05 07:36:40;;;;;;;16.73;15.13;;;18.90;99.90;;;;;;4992953;28;20250;-76
2021/08/05 07:39:11;;;;;;;16.20;14.20;;;18.90;99.90;;;;;;4991138;28;20561;-76
2021/08/05 07:41:36;;;;;;;18.07;16.37;;;19.00;99.90;;;;;;4976463;28;20207;-75
2021/08/05 07:44:02;;;;;;;20.87;16.07;;;19.10;99.90;;;;;;4993191;28;20183;-76
2021/08/05 07:46:27;;;;;;;18.20;16.33;;;19.20;99.90;;;;;;4975451;28;20605;-77
2021/08/05 07:48:53;;;;;;;17.93;15.57;;;19.40;99.90;;;;;;4991364;28;20259;-75
2021/08/05 07:51:18;;;;;;;17.20;15.40;;;19.50;99.90;;;;;;4975025;28;20729;-76
2021/08/05 07:53:44;;;;;;;17.23;15.43;;;19.60;99.90;;;;;;4991422;28;20207;-76
2021/08/05 07:56:10;;;;;;;16.40;14.77;;;19.60;99.90;;;;;;5007629;28;20184;-75
2021/08/05 07:58:35;;;;;;;16.13;14.53;;;19.50;99.90;;;;;;4991368;28;20207;-76
2021/08/05 08:01:01;;;;;;;14.87;13.03;;;19.60;99.90;;;;;;4974721;28;20227;-76
2021/08/05 08:03:26;;;;;;;16.90;14.30;;;19.70;99.90;;;;;;4991298;28;20183;-76
2021/08/05 08:05:52;;;;;;;13.63;12.23;;;19.90;99.90;;;;;;4991357;28;20172;-76
2021/08/05 08:08:17;;;;;;;14.00;12.70;;;20.20;99.90;;;;;;4975123;28;20199;-76
2021/08/05 08:10:43;;;;;;;11.60;10.50;;;20.40;99.90;;;;;;5021744;23;20227;-76
2021/08/05 08:13:08;;;;;;;12.43;10.37;;;20.60;99.90;;;;;;4994734;28;20171;-75
2021/08/05 08:15:34;;;;;;;10.87;9.77;;;20.60;99.90;;;;;;5010812;28;20171;-75
2021/08/05 08:17:59;;;;;;;12.33;10.70;;;20.40;99.90;;;;;;5010813;28;20233;-76
2021/08/05 08:20:25;;;;;;;12.83;11.53;;;20.50;99.90;;;;;;4990844;28;20726;-76
2021/08/05 08:22:51;;;;;;;11.50;10.40;;;20.40;99.90;;;;;;5007813;28;20644;-75
2021/08/05 08:25:17;;;;;;;12.87;10.93;;;20.40;99.90;;;;;;5007604;28;20173;-76
2021/08/05 08:27:42;;;;;;;12.30;11.07;;;20.40;99.90;;;;;;5008899;28;20640;-76
2021/08/05 08:30:09;;;;;;;13.40;11.30;;;20.50;99.90;;;;;;4991184;28;20738;-75
2021/08/05 08:32:35;;;;;;;11.90;10.57;;;20.70;99.90;;;;;;5007724;28;20172;-76
2021/08/05 08:35:01;;;;;;;12.93;10.97;;;20.80;99.90;;;;;;5007476;28;20639;-75
2021/08/05 08:37:27;;;;;;;11.37;10.27;;;20.80;99.90;;;;;;5007464;28;20640;-75
2021/08/05 08:39:52;;;;;;;10.87;9.77;;;20.80;99.90;;;;;;5007126;28;20291;-76
2021/08/05 08:42:18;;;;;;;11.23;10.03;;;20.80;99.90;;;;;;4992250;28;20231;-76
2021/08/05 08:44:44;;;;;;;11.23;9.97;;;20.70;99.90;;;;;;5011177;28;20173;-75
2021/08/05 08:47:10;;;;;;;10.47;9.23;;;20.60;99.90;;;;;;4994839;28;20177;-75
2021/08/05 08:49:35;;;;;;;11.23;9.73;;;20.70;99.90;;;;;;5010523;28;20172;-76
2021/08/05 08:52:01;;;;;;;12.10;9.33;;;20.70;99.90;;;;;;5011203;28;20536;-75
2021/08/05 08:54:27;;;;;;;10.33;9.23;;;20.70;99.90;;;;;;5011187;28;20556;-76
2021/08/05 08:56:53;;;;;;;12.10;9.43;;;20.80;99.90;;;;;;4994833;28;20184;-76
2021/08/05 08:59:19;;;;;;;11.77;10.00;;;21.00;99.90;;;;;;5010773;28;20176;-75
2021/08/05 09:01:45;;;;;;;10.90;9.80;;;21.20;99.90;;;;;;5010774;28;20212;-75
2021/08/05 09:04:10;;;;;;;10.90;9.67;;;21.30;99.90;;;;;;5011125;28;20206;-75
2021/08/05 09:06:36;;;;;;;10.00;8.63;;;21.50;99.90;;;;;;5010892;28;20203;-75
2021/08/05 09:09:05;;;;;;;10.50;9.30;;;21.70;99.90;;;;;;5010687;28;20250;-75
2021/08/05 09:11:31;;;;;;;11.13;9.13;;;21.90;99.90;;;;;;5010329;28;20243;-75
2021/08/05 09:13:56;;;;;;;11.47;9.90;;;22.20;99.90;;;;;;5010670;28;20173;-75
2021/08/05 09:16:23;;;;;;;9.50;8.10;;;22.30;99.90;;;;;;5007810;28;20611;-79
2021/08/05 09:18:49;;;;;;;10.23;9.20;;;22.40;99.90;;;;;;4979001;28;20210;-78
2021/08/05 09:21:18;;;;;;;18.98;9.10;;;22.40;99.90;;;;;;4994488;28;20196;-78
2021/08/05 09:23:57;;;;;;;9.37;8.40;;;22.30;99.90;;;;;;5010650;28;20172;-78
2021/08/05 09:26:44;;;;;;;8.80;7.23;;;22.40;99.90;;;;;;5009867;28;20176;-77
2021/08/05 09:29:17;;;;;;;8.50;6.43;;;22.40;99.90;;;;;;4994989;28;20570;-79
2021/08/05 09:31:57;;;;;;;6.33;5.70;;;22.40;99.90;;;;;;4993666;28;20250;-77
2021/08/05 09:34:24;;;;;;;8.97;6.97;;;22.30;99.90;;;;;;4991714;28;20604;-78
2021/08/05 09:36:58;;;;;;;7.77;7.00;;;22.30;99.90;;;;;;4990749;28;20177;-78
2021/08/05 09:39:25;;;;;;;8.70;6.53;;;22.20;99.90;;;;;;4990523;28;20180;-76
2021/08/05 09:41:58;;;;;;;8.20;6.93;;;22.20;99.90;;;;;;5005892;28;20208;-76
2021/08/05 09:44:24;;;;;;;8.73;7.93;;;22.40;99.90;;;;;;4993505;28;20230;-76
2021/08/05 09:47:07;;;;;;;9.67;7.80;;;22.30;99.90;;;;;;4990047;28;20185;-77
2021/08/05 09:49:36;;;;;;;8.60;7.70;;;22.30;99.90;;;;;;4990392;28;20369;-76
2021/08/05 09:52:02;;;;;;;7.73;7.03;;;22.50;99.90;;;;;;5006998;28;20711;-77
2021/08/05 09:54:47;;;;;;;6.93;6.28;;;22.60;99.90;;;;;;5009383;28;20176;-76
2021/08/05 09:57:12;;;;;;;7.17;6.47;;;22.90;99.90;;;;;;4995835;28;20180;-76
2021/08/05 09:59:58;;;;;;;5.57;5.07;;;23.10;99.90;;;;;;4993201;28;20196;-76
2021/08/05 10:02:25;;;;;;;7.55;6.70;;;23.30;99.90;;;;;;4994115;28;20176;-77
2021/08/05 10:04:51;;;;;;;5.40;4.93;;;23.40;99.90;;;;;;4994345;28;20586;-76
2021/08/05 10:07:16;;;;;;;5.55;4.90;;;23.50;99.90;;;;;;4989774;28;20216;-76
2021/08/05 10:09:44;;;;;;;6.38;5.43;;;23.50;99.90;;;;;;5009087;28;20231;-76
2021/08/05 10:12:20;;;;;;;5.40;4.90;;;23.60;99.90;;;;;;4993785;28;20176;-76
2021/08/05 10:14:47;;;;;;;5.70;5.13;;;23.60;99.90;;;;;;4993563;28;20167;-78
2021/08/05 10:17:13;;;;;;;6.22;5.63;;;23.60;99.90;;;;;;4993297;28;20180;-75
2021/08/05 10:19:43;;;;;;;5.32;4.82;;;23.50;99.90;;;;;;5004210;28;20222;-75
2021/08/05 10:22:09;;;;;;;4.60;4.20;;;23.40;99.90;;;;;;4992907;28;20220;-76
2021/08/05 10:24:36;;;;;;;4.77;4.33;;;23.40;99.90;;;;;;4993216;28;20239;-75
2021/08/05 10:27:03;;;;;;;5.17;4.63;;;23.30;99.90;;;;;;4989501;28;20177;-76
2021/08/05 10:29:29;;;;;;;6.80;4.93;;;23.20;99.90;;;;;;4993214;28;20238;-76
2021/08/05 10:31:54;;;;;;;5.00;4.50;;;23.10;99.90;;;;;;4993340;28;20195;-76
2021/08/05 10:34:20;;;;;;;6.40;4.38;;;23.20;99.90;;;;;;4993929;28;20599;-76
2021/08/05 10:36:45;;;;;;;3.77;2.77;;;23.30;99.90;;;;;;4993343;28;20651;-77
2021/08/05 10:39:11;;;;;;;5.37;3.83;;;23.20;99.90;;;;;;4992976;28;20668;-76
2021/08/05 10:41:37;;;;;;;5.57;4.47;;;23.40;99.90;;;;;;4992685;28;20238;-76
2021/08/05 10:44:02;;;;;;;4.83;4.30;;;23.40;99.90;;;;;;4993118;28;20291;-76
2021/08/05 10:46:33;;;;;;;4.10;3.33;;;23.30;99.90;;;;;;4993145;28;20180;-76
2021/08/05 10:49:05;;;;;;;5.53;3.90;;;23.30;99.90;;;;;;4992403;28;20678;-75
2021/08/05 10:51:40;;;;;;;4.23;3.63;;;23.20;99.90;;;;;;4993610;28;20201;-75
2021/08/05 10:54:06;;;;;;;4.37;3.97;;;23.20;99.90;;;;;;4994153;28;20183;-75
2021/08/05 10:56:31;;;;;;;3.80;3.40;;;23.30;99.90;;;;;;5010857;28;20187;-75
2021/08/05 10:59:00;;;;;;;4.68;3.40;;;23.50;99.90;;;;;;4976104;28;20180;-75
2021/08/05 11:01:49;;;;;;;3.20;2.90;;;23.40;99.90;;;;;;5001155;28;20203;-75
2021/08/05 11:04:39;;;;;;;4.37;3.50;;;23.40;99.90;;;;;;5001525;28;20271;-75
2021/08/05 11:07:24;;;;;;;4.00;3.60;;;23.50;99.90;;;;;;4991434;28;20275;-75
2021/08/05 11:09:51;;;;;;;4.67;3.03;;;23.50;99.90;;;;;;5004965;28;20321;-76
2021/08/05 11:12:39;;;;;;;4.70;2.97;;;23.50;99.90;;;;;;4979684;28;20199;-74
2021/08/05 11:15:21;;;;;;;4.10;3.40;;;23.60;99.90;;;;;;4992404;28;20639;-78
2021/08/05 11:18:19;;;;;;;6.22;3.25;;;23.60;99.90;;;;;;5008484;28;20230;-77
2021/08/05 11:20:51;;;;;;;5.45;3.55;;;23.70;99.90;;;;;;4994405;28;20220;-76
2021/08/05 11:23:28;;;;;;;3.35;2.63;;;23.60;99.90;;;;;;4989523;28;20188;-78
2021/08/05 11:25:54;;;;;;;3.40;3.10;;;23.60;99.90;;;;;;4992878;28;20582;-76
2021/08/05 11:28:23;;;;;;;3.50;3.20;;;23.60;99.90;;;;;;4993291;28;20172;-76
2021/08/05 11:30:55;;;;;;;3.55;2.90;;;23.70;99.90;;;;;;4991673;28;20200;-78
2021/08/05 11:33:39;;;;;;;4.53;3.38;;;23.70;99.90;;;;;;4993877;28;20230;-76
2021/08/05 11:36:15;;;;;;;4.88;4.00;;;23.80;99.90;;;;;;4980472;28;20180;-79
2021/08/05 11:39:26;;;;;;;3.67;3.37;;;23.70;99.90;;;;;;4992906;28;20187;-78
2021/08/05 11:41:58;;;;;;;5.15;3.78;;;23.60;99.90;;;;;;4993133;28;20214;-79
2021/08/05 11:44:46;;;;;;;3.88;3.25;;;23.60;99.90;;;;;;4992677;28;20185;-80
2021/08/05 11:47:19;;;;;;;3.95;3.65;;;23.60;99.90;;;;;;4986577;28;20165;-79
2021/08/05 11:50:11;;;;;;;3.58;3.28;;;23.70;99.90;;;;;;4990992;28;20168;-77
2021/08/05 11:52:42;;;;;;;4.50;3.17;;;23.90;99.90;;;;;;4989445;28;20198;-77
2021/08/05 11:55:12;;;;;;;4.18;3.50;;;24.00;99.90;;;;;;4992184;28;20239;-79
2021/08/05 11:57:45;;;;;;;3.75;3.45;;;23.90;99.90;;;;;;4992185;28;20618;-77
2021/08/05 12:00:13;;;;;;;4.35;3.78;;;23.90;99.90;;;;;;4992038;28;20192;-77
2021/08/05 12:02:38;;;;;;;3.50;3.20;;;23.90;99.90;;;;;;4992664;28;20196;-77
2021/08/05 12:05:04;;;;;;;4.10;3.70;;;24.00;99.90;;;;;;4992322;28;20258;-79
2021/08/05 12:07:34;;;;;;;6.05;3.47;;;24.10;99.90;;;;;;4992558;28;20179;-77
2021/08/05 12:10:29;;;;;;;4.00;3.60;;;24.00;99.90;;;;;;4992131;28;20212;-77
2021/08/05 12:13:04;;;;;;;5.00;4.15;;;24.00;99.90;;;;;;4991988;28;20191;-77
2021/08/05 12:15:40;;;;;;;5.25;3.83;;;24.00;99.90;;;;;;4992187;28;20719;-77
2021/08/05 12:18:15;;;;;;;3.70;3.30;;;23.90;99.90;;;;;;4995318;28;20263;-77
2021/08/05 12:20:43;;;;;;;5.63;3.80;;;23.90;99.90;;;;;;4996180;28;20207;-77
2021/08/05 12:23:13;;;;;;;4.30;3.90;;;24.00;99.90;;;;;;4996261;28;20191;-77
2021/08/05 12:25:42;;;;;;;4.43;4.03;;;24.00;99.90;;;;;;4996255;28;20171;-77
2021/08/05 12:28:10;;;;;;;3.08;2.75;;;24.10;99.90;;;;;;4996193;28;20259;-76
2021/08/05 12:30:46;;;;;;;2.83;2.60;;;24.30;99.90;;;;;;4996314;28;20266;-77
2021/08/05 12:33:17;;;;;;;2.92;2.63;;;24.40;99.90;;;;;;5012533;28;20188;-77
2021/08/05 12:36:10;;;;;;;3.00;2.70;;;24.50;99.90;;;;;;4995770;28;20207;-80
2021/08/05 12:38:42;;;;;;;3.58;2.85;;;24.40;99.90;;;;;;4995881;28;20187;-77